Time;durP1;ratioP1;P1;durP2;ratioP2;P2;SDS_P1;SDS_P2;PMS_P1;PMS_P2;Temp;Humidity;BMP_temperature;BMP_pressure;BME280_temperature;BME280_humidity;BME280_pressure;Samples;Min_cycle;Max_cycle;Signal;HPM_P1;HPM_P2
2023/07/08 00:00:17;;;;;;;;;5.50;5.50;;;;;27.67;34.42;100749.81;5079323;28;45420;-63
2023/07/08 00:02:43;;;;;;;;;7.00;7.00;;;;;27.65;34.73;100740.97;5080893;28;45422;-63
2023/07/08 00:05:14;;;;;;;;;9.50;7.75;;;;;27.63;34.78;100753.75;5080591;28;45334;-63
2023/07/08 00:07:40;;;;;;;;;6.75;6.75;;;;;27.59;34.84;100751.47;5080574;28;45520;-63
2023/07/08 00:10:13;;;;;;;;;9.50;8.50;;;;;27.55;35.03;100746.31;5079134;28;47149;-63
2023/07/08 00:12:38;;;;;;;;;6.75;6.00;;;;;27.56;34.65;100757.97;5079082;28;45522;-63
2023/07/08 00:15:04;;;;;;;;;6.75;6.75;;;;;27.52;35.22;100754.69;5080371;28;45793;-63
2023/07/08 00:17:30;;;;;;;;;8.50;7.75;;;;;27.49;34.64;100754.94;5079207;28;46008;-63
2023/07/08 00:19:56;;;;;;;;;7.75;7.00;;;;;27.49;35.10;100752.22;5080171;28;45254;-63
2023/07/08 00:22:24;;;;;;;;;8.50;7.50;;;;;27.46;34.63;100748.94;5066045;27;50424;-63
2023/07/08 00:24:50;;;;;;;;;8.50;6.50;;;;;27.46;35.11;100752.50;5060250;28;45209;-63
2023/07/08 00:27:15;;;;;;;;;9.00;7.00;;;;;27.40;34.92;100753.88;5059825;28;45481;-63
2023/07/08 00:29:40;;;;;;;;;7.75;6.75;;;;;27.40;34.67;100761.13;5059909;28;48334;-63
2023/07/08 00:32:15;;;;;;;;;9.00;8.00;;;;;27.39;34.98;100768.34;5058606;28;45446;-63
2023/07/08 00:34:41;;;;;;;;;3.50;2.00;;;;;27.40;35.24;100774.63;5058943;28;45442;-63
2023/07/08 00:37:13;;;;;;;;;6.75;6.25;;;;;27.38;35.03;100768.44;5059897;28;45383;-63
2023/07/08 00:39:39;;;;;;;;;7.00;7.00;;;;;27.38;35.01;100776.53;5060211;28;46422;-63
2023/07/08 00:42:17;;;;;;;;;8.75;8.75;;;;;27.36;34.87;100782.06;5058477;28;45514;-63
2023/07/08 00:44:43;;;;;;;;;8.00;8.00;;;;;27.38;35.35;100798.13;5059790;28;45276;-63
2023/07/08 00:47:11;;;;;;;;;9.00;7.50;;;;;27.35;35.10;100790.31;5059661;28;45343;-63
2023/07/08 00:49:55;;;;;;;;;8.50;6.00;;;;;27.36;35.08;100783.94;5059706;28;46295;-63
2023/07/08 00:52:27;;;;;;;;;13.50;6.75;;;;;27.34;35.13;100792.13;5070050;28;45227;-63
2023/07/08 00:55:03;;;;;;;;;8.00;6.25;;;;;27.33;35.66;100779.66;5083586;28;45373;-63
2023/07/08 00:57:33;;;;;;;;;7.00;7.00;;;;;27.30;34.69;100779.06;5083668;28;45396;-63
2023/07/08 01:00:04;;;;;;;;;8.00;7.75;;;;;27.32;35.12;100787.84;5083243;28;46637;-64
2023/07/08 01:02:34;;;;;;;;;7.50;6.25;;;;;27.30;35.49;100787.16;5082240;28;45422;-63
2023/07/08 01:05:22;;;;;;;;;9.00;8.00;;;;;27.26;35.33;100789.25;5083586;27;45423;-63
2023/07/08 01:07:53;;;;;;;;;8.50;8.50;;;;;27.27;35.46;100792.78;5083415;28;45405;-63
2023/07/08 01:10:27;;;;;;;;;8.25;7.00;;;;;27.22;35.51;100783.25;5083309;28;46669;-63
2023/07/08 01:13:00;;;;;;;;;8.00;7.50;;;;;27.21;35.52;100792.31;5083240;28;45181;-63
2023/07/08 01:15:33;;;;;;;;;6.25;5.75;;;;;27.20;35.60;100804.09;5083411;28;45394;-63
2023/07/08 01:17:58;;;;;;;;;10.00;8.00;;;;;27.17;35.53;100800.78;5083208;28;45313;-63
2023/07/08 01:20:24;;;;;;;;;8.50;7.00;;;;;27.17;35.52;100807.06;5082786;28;54210;-63
2023/07/08 01:22:49;;;;;;;;;6.00;5.00;;;;;27.15;35.29;100806.31;5064466;28;45383;-63
2023/07/08 01:25:15;;;;;;;;;9.25;8.00;;;;;27.08;35.51;100791.63;5062894;28;45236;-63
2023/07/08 01:27:47;;;;;;;;;8.50;7.50;;;;;27.13;35.11;100793.94;5062771;28;45205;-63
2023/07/08 01:30:14;;;;;;;;;8.75;7.75;;;;;27.12;35.79;100793.09;5062778;28;46165;-63
2023/07/08 01:32:46;;;;;;;;;9.00;6.25;;;;;27.12;35.34;100794.91;5062650;28;45318;-63
2023/07/08 01:35:12;;;;;;;;;9.75;9.75;;;;;27.10;35.17;100803.16;5062976;28;45484;-63
2023/07/08 01:37:44;;;;;;;;;10.00;8.00;;;;;27.11;35.37;100809.38;5082931;28;45402;-63
2023/07/08 01:40:27;;;;;;;;;8.25;7.75;;;;;27.08;35.35;100819.47;5082776;28;46124;-63
2023/07/08 01:42:54;;;;;;;;;8.75;8.75;;;;;27.08;35.52;100829.38;5082837;27;45380;-63
2023/07/08 01:45:22;;;;;;;;;10.00;8.25;;;;;27.06;35.67;100839.44;5082831;28;45542;-63
2023/07/08 01:47:56;;;;;;;;;8.00;8.00;;;;;27.03;35.38;100897.19;5082781;28;45310;-63
2023/07/08 01:50:24;;;;;;;;;8.50;8.50;;;;;26.97;36.13;100939.94;5080462;28;46456;-63
2023/07/08 01:52:52;;;;;;;;;8.00;8.00;;;;;26.93;35.88;100945.59;5074273;28;45334;-63
2023/07/08 01:55:24;;;;;;;;;10.50;7.25;;;;;26.88;35.81;100955.03;5082682;28;45235;-63
2023/07/08 01:57:52;;;;;;;;;13.00;10.00;;;;;26.80;36.00;100935.91;5082555;28;45390;-63
2023/07/08 02:00:19;;;;;;;;;8.50;8.25;;;;;26.75;36.19;100934.47;5082715;28;45250;-63
2023/07/08 02:02:45;;;;;;;;;9.75;7.75;;;;;26.70;35.95;100920.44;5081286;28;45279;-63
2023/07/08 02:05:10;;;;;;;;;10.50;7.50;;;;;26.63;36.21;100926.44;5081345;27;45413;-63
2023/07/08 02:07:35;;;;;;;;;10.50;9.00;;;;;26.55;36.87;100936.00;5068136;28;45459;-63
2023/07/08 02:10:01;;;;;;;;;7.75;6.75;;;;;26.50;36.32;100935.50;5061929;28;48234;-63
2023/07/08 02:12:26;;;;;;;;;10.00;8.25;;;;;26.45;36.92;100924.22;5062350;28;45650;-63
2023/07/08 02:14:52;;;;;;;;;8.75;7.00;;;;;26.37;36.60;100915.91;5061763;28;45568;-63
2023/07/08 02:17:17;;;;;;;;;6.75;6.75;;;;;26.38;36.66;100923.00;5062185;28;45414;-63
2023/07/08 02:19:43;;;;;;;;;8.00;7.00;;;;;26.33;36.94;100912.59;5062379;28;45241;-63
2023/07/08 02:22:09;;;;;;;;;5.00;3.50;;;;;26.25;37.85;100902.41;5067924;28;45702;-63
2023/07/08 02:24:34;;;;;;;;;9.25;7.75;;;;;26.19;37.99;100905.59;5060737;28;45223;-63
2023/07/08 02:26:59;;;;;;;;;5.75;4.75;;;;;26.15;38.22;100895.16;5061755;28;45426;-63
2023/07/08 02:29:26;;;;;;;;;5.25;5.00;;;;;26.10;38.27;100895.50;5061678;28;46040;-63
2023/07/08 02:31:51;;;;;;;;;4.25;4.25;;;;;26.09;38.51;100901.91;5061938;28;45188;-63
2023/07/08 02:34:17;;;;;;;;;4.00;4.00;;;;;26.08;38.48;100917.19;5061886;28;45425;-63
2023/07/08 02:36:43;;;;;;;;;3.75;3.00;;;;;26.06;38.70;100907.50;5061878;28;45150;-63
2023/07/08 02:39:09;;;;;;;;;5.00;4.00;;;;;26.04;39.01;100909.44;5060350;28;46307;-63
2023/07/08 02:41:34;;;;;;;;;5.00;5.00;;;;;26.01;39.16;100894.38;5061697;28;45145;-63
2023/07/08 02:44:00;;;;;;;;;4.75;4.00;;;;;25.98;39.16;100885.69;5076833;28;45450;-63
2023/07/08 02:46:25;;;;;;;;;4.00;4.00;;;;;25.94;38.61;100891.28;5060366;28;45525;-64
2023/07/08 02:48:51;;;;;;;;;3.50;3.50;;;;;25.92;39.55;100878.94;5081417;28;45324;-63
2023/07/08 02:51:16;;;;;;;;;5.75;3.75;;;;;25.91;39.32;100874.50;5080464;28;45264;-63
2023/07/08 02:53:41;;;;;;;;;3.75;3.00;;;;;25.90;38.77;100881.75;5081655;28;45358;-63
2023/07/08 02:56:06;;;;;;;;;3.75;2.00;;;;;25.87;39.10;100875.72;5081915;28;45385;-63
2023/07/08 02:58:32;;;;;;;;;6.25;4.25;;;;;25.84;38.63;100871.44;5061109;28;49397;-64
2023/07/08 03:01:00;;;;;;;;;3.00;2.00;;;;;25.82;39.08;100865.31;5061633;28;45307;-63
2023/07/08 03:03:29;;;;;;;;;2.00;2.00;;;;;25.80;38.81;100870.81;5061660;28;45248;-63
2023/07/08 03:05:59;;;;;;;;;1.75;1.75;;;;;25.80;39.03;100859.22;5060006;28;45521;-63
2023/07/08 03:08:26;;;;;;;;;1.75;1.50;;;;;25.78;38.88;100869.22;5059630;28;46359;-63
2023/07/08 03:10:58;;;;;;;;;1.25;1.25;;;;;25.71;38.63;100860.78;5059842;28;45387;-63
2023/07/08 03:13:24;;;;;;;;;2.75;2.25;;;;;25.74;39.39;100857.00;5079921;28;45300;-63
2023/07/08 03:15:51;;;;;;;;;3.00;1.50;;;;;25.73;39.25;100849.88;5081244;27;45354;-63
2023/07/08 03:18:17;;;;;;;;;2.00;2.00;;;;;25.67;39.25;100839.59;5081454;28;45520;-63
2023/07/08 03:20:46;;;;;;;;;2.50;2.50;;;;;25.67;39.18;100837.75;5079929;28;45251;-63
2023/07/08 03:23:12;;;;;;;;;1.00;1.00;;;;;25.67;38.50;100832.38;5061006;28;45380;-63
2023/07/08 03:25:38;;;;;;;;;1.00;1.00;;;;;25.69;39.08;100832.28;5060861;28;45343;-63
2023/07/08 03:28:06;;;;;;;;;4.00;2.75;;;;;25.69;38.87;100824.19;5060795;28;45416;-63
2023/07/08 03:30:32;;;;;;;;;2.25;2.00;;;;;25.70;38.49;100826.75;5061079;28;45333;-63
2023/07/08 03:32:57;;;;;;;;;3.50;2.50;;;;;25.70;38.52;100815.13;5061106;28;45299;-63
2023/07/08 03:35:22;;;;;;;;;1.00;1.00;;;;;25.68;38.53;100817.94;5060780;28;45698;-63
2023/07/08 03:37:48;;;;;;;;;4.00;2.25;;;;;25.68;38.40;100814.41;5060893;28;46292;-63
2023/07/08 03:40:13;;;;;;;;;3.25;2.00;;;;;25.70;38.33;100815.13;5060671;28;45296;-63
2023/07/08 03:42:39;;;;;;;;;2.75;2.75;;;;;25.69;38.35;100810.75;5061040;28;45162;-63
2023/07/08 03:45:05;;;;;;;;;1.75;1.75;;;;;25.70;38.35;100802.53;5060373;28;53730;-63
2023/07/08 03:47:30;;;;;;;;;2.50;2.50;;;;;25.70;38.75;100793.59;5060669;28;45485;-63
2023/07/08 03:49:55;;;;;;;;;3.50;2.50;;;;;25.73;38.48;100785.31;5060549;28;45439;-63
2023/07/08 03:52:21;;;;;;;;;1.75;1.00;;;;;25.74;38.36;100776.25;5068353;28;45665;-63
2023/07/08 03:54:46;;;;;;;;;3.75;2.50;;;;;25.73;38.62;100764.63;5079390;28;45480;-63
2023/07/08 03:57:12;;;;;;;;;2.75;1.75;;;;;25.77;38.14;100760.72;5080832;28;46995;-63
2023/07/08 03:59:37;;;;;;;;;2.00;2.00;;;;;25.75;38.41;100740.31;5079364;28;45371;-63
2023/07/08 04:02:03;;;;;;;;;3.00;3.00;;;;;25.79;38.79;100747.16;5081091;28;45311;-63
2023/07/08 04:04:29;;;;;;;;;3.25;3.25;;;;;25.75;38.49;100734.94;5081023;28;45449;-63
2023/07/08 04:06:54;;;;;;;;;3.50;2.25;;;;;25.81;38.66;100742.53;5080639;28;46146;-63
2023/07/08 04:09:20;;;;;;;;;5.00;3.00;;;;;25.81;38.42;100739.81;5080756;28;45429;-63
2023/07/08 04:11:45;;;;;;;;;4.00;3.00;;;;;25.83;38.72;100731.63;5080775;28;45512;-63
2023/07/08 04:14:11;;;;;;;;;3.25;3.25;;;;;25.84;38.83;100725.28;5080473;28;45489;-63
2023/07/08 04:16:48;;;;;;;;;5.00;4.00;;;;;25.83;38.24;100732.47;5080676;28;45314;-63
2023/07/08 04:19:15;;;;;;;;;5.25;5.00;;;;;25.81;38.68;100734.44;5079332;28;45284;-63
2023/07/08 04:21:42;;;;;;;;;7.50;5.00;;;;;25.78;38.43;100727.44;5071680;28;45284;-63
2023/07/08 04:24:10;;;;;;;;;7.00;6.75;;;;;25.80;38.87;100725.50;5060139;28;45476;-63
2023/07/08 04:26:35;;;;;;;;;8.00;5.50;;;;;25.80;38.70;100730.03;5059193;28;46583;-63
2023/07/08 04:29:01;;;;;;;;;9.25;7.00;;;;;25.82;38.45;100741.50;5059809;28;45435;-63
2023/07/08 04:31:27;;;;;;;;;7.75;7.75;;;;;25.82;38.36;100760.34;5060393;28;45286;-63
2023/07/08 04:33:52;;;;;;;;;9.50;7.00;;;;;25.82;38.89;100760.34;5059971;28;45248;-63
2023/07/08 04:36:21;;;;;;;;;6.00;6.00;;;;;25.79;38.27;100766.00;5059938;28;46228;-63
2023/07/08 04:38:47;;;;;;;;;18.25;17.50;;;;;25.79;38.31;100774.91;5070580;28;45342;-63
2023/07/08 04:41:12;;;;;;;;;11.00;9.75;;;;;25.80;38.52;100767.72;5059951;28;45249;-63
2023/07/08 04:43:38;;;;;;;;;8.75;8.50;;;;;25.82;38.51;100776.50;5059718;28;45268;-63
2023/07/08 04:46:18;;;;;;;;;8.50;7.25;;;;;25.82;39.11;100771.13;5059968;28;45591;-63
2023/07/08 04:48:45;;;;;;;;;8.50;6.50;;;;;25.81;39.09;100764.06;5058363;28;45235;-63
2023/07/08 04:51:10;;;;;;;;;4.75;2.00;;;;;25.80;38.70;100778.47;5060023;28;45343;-63
2023/07/08 04:53:36;;;;;;;;;9.50;6.00;;;;;25.83;38.53;100788.13;5077831;28;45295;-63
2023/07/08 04:56:01;;;;;;;;;11.25;7.75;;;;;25.80;39.05;100789.25;5079777;28;45433;-63
2023/07/08 04:58:27;;;;;;;;;8.75;7.00;;;;;25.81;39.06;100799.03;5079750;28;45381;-63
2023/07/08 05:00:52;;;;;;;;;9.75;7.50;;;;;25.81;39.05;100817.88;5080233;28;45309;-63
2023/07/08 05:03:17;;;;;;;;;10.00;10.00;;;;;25.80;39.33;100825.06;5078589;28;45345;-63
2023/07/08 05:05:43;;;;;;;;;7.25;7.25;;;;;25.78;38.81;100818.09;5079936;28;46118;-63
2023/07/08 05:08:08;;;;;;;;;8.00;8.00;;;;;25.83;39.29;100841.97;5079711;28;45260;-63
2023/07/08 05:10:34;;;;;;;;;10.75;8.00;;;;;25.79;39.17;100838.66;5080254;28;45378;-63
2023/07/08 05:13:00;;;;;;;;;10.50;8.00;;;;;25.79;39.31;100831.41;5079520;28;45573;-63
2023/07/08 05:15:25;;;;;;;;;8.75;8.50;;;;;25.80;39.13;100841.22;5067654;28;46263;-63
2023/07/08 05:17:51;;;;;;;;;13.50;9.75;;;;;25.80;38.89;100837.69;5059328;28;45332;-63
2023/07/08 05:20:18;;;;;;;;;8.25;7.75;;;;;25.84;39.10;100858.00;5063555;28;45445;-63
2023/07/08 05:22:44;;;;;;;;;8.25;7.25;;;;;25.83;39.25;100858.97;5077722;28;45627;-63
2023/07/08 05:25:12;;;;;;;;;10.50;9.00;;;;;25.85;39.31;100872.28;5078208;28;47236;-63
2023/07/08 05:27:38;;;;;;;;;6.00;4.25;;;;;25.86;39.20;100879.41;5077871;28;45534;-64
2023/07/08 05:30:05;;;;;;;;;8.50;6.50;;;;;25.87;39.06;100886.50;5078341;28;45526;-63
2023/07/08 05:32:31;;;;;;;;;9.75;6.75;;;;;25.88;39.43;100889.06;5078155;28;45581;-63
2023/07/08 05:34:56;;;;;;;;;8.25;8.00;;;;;25.90;39.46;100905.09;5079473;28;45247;-63
2023/07/08 05:37:25;;;;;;;;;5.75;5.00;;;;;25.86;39.42;100899.13;5078242;28;45419;-63
2023/07/08 05:39:54;;;;;;;;;12.75;9.00;;;;;25.89;39.38;100904.25;5082780;28;45451;-63
2023/07/08 05:42:20;;;;;;;;;10.75;9.75;;;;;25.88;39.29;100909.75;5082851;28;45426;-63
2023/07/08 05:44:45;;;;;;;;;6.50;5.75;;;;;25.87;39.22;100906.19;5082693;28;45266;-63
2023/07/08 05:47:11;;;;;;;;;6.75;6.75;;;;;25.83;39.62;100906.56;5082637;28;45277;-63
2023/07/08 05:49:36;;;;;;;;;4.75;4.75;;;;;25.87;39.17;100910.72;5069028;28;45179;-63
2023/07/08 05:52:06;;;;;;;;;6.00;5.25;;;;;25.85;39.31;100921.63;5067411;28;45651;-63
2023/07/08 05:54:31;;;;;;;;;6.00;5.75;;;;;25.88;39.33;100926.75;5082894;28;46081;-63
2023/07/08 05:56:56;;;;;;;;;3.50;3.25;;;;;25.85;39.76;100932.38;5082549;28;45376;-63
2023/07/08 05:59:22;;;;;;;;;5.75;5.00;;;;;25.88;39.36;100950.97;5082553;28;45248;-64
2023/07/08 06:01:47;;;;;;;;;4.50;3.25;;;;;25.85;39.65;100953.03;5081688;27;45299;-63
2023/07/08 06:04:12;;;;;;;;;4.25;4.25;;;;;25.83;39.22;100957.69;5082645;28;45440;-63
2023/07/08 06:06:38;;;;;;;;;4.00;4.00;;;;;25.84;39.39;100968.34;5082516;28;45349;-63
2023/07/08 06:09:03;;;;;;;;;3.75;3.50;;;;;25.82;39.69;100969.44;5082722;28;45468;-63
2023/07/08 06:11:29;;;;;;;;;2.75;2.75;;;;;25.78;40.26;100976.88;5082344;28;45454;-63
2023/07/08 06:13:54;;;;;;;;;6.00;3.00;;;;;25.77;39.62;100980.53;5080928;28;47809;-63
2023/07/08 06:16:20;;;;;;;;;4.00;2.75;;;;;25.75;40.07;100990.56;5082499;28;45321;-63
2023/07/08 06:18:45;;;;;;;;;2.00;2.00;;;;;25.73;40.01;101003.28;5082575;28;45238;-64
2023/07/08 06:21:10;;;;;;;;;5.50;4.00;;;;;25.70;40.08;101012.44;5077025;28;45189;-64
2023/07/08 06:23:35;;;;;;;;;6.25;2.75;;;;;25.68;40.26;101010.81;5060698;28;47010;-63
2023/07/08 06:26:01;;;;;;;;;2.00;2.00;;;;;25.63;39.96;101008.47;5060638;28;45240;-63
2023/07/08 06:28:26;;;;;;;;;2.25;2.25;;;;;25.60;40.44;101006.00;5068535;28;45257;-63
2023/07/08 06:30:51;;;;;;;;;3.25;2.25;;;;;25.58;40.10;101006.09;5062001;28;45251;-63
2023/07/08 06:33:17;;;;;;;;;1.00;1.00;;;;;25.53;39.78;101005.59;5061886;28;45307;-63
2023/07/08 06:35:43;;;;;;;;;3.25;3.00;;;;;25.55;40.06;101014.41;5060558;28;45325;-63
2023/07/08 06:38:09;;;;;;;;;2.50;2.25;;;;;25.53;40.15;101012.81;5062035;28;45177;-64
2023/07/08 06:40:34;;;;;;;;;3.25;3.00;;;;;25.50;39.92;101029.16;5061595;28;45170;-63
2023/07/08 06:43:00;;;;;;;;;4.00;3.00;;;;;25.51;40.67;101028.19;5061595;28;46972;-64
2023/07/08 06:45:25;;;;;;;;;2.50;2.50;;;;;25.49;40.12;101033.69;5061606;28;45481;-64
2023/07/08 06:47:50;;;;;;;;;3.00;3.00;;;;;25.45;40.00;101037.59;5060707;28;45518;-63
2023/07/08 06:50:16;;;;;;;;;4.00;4.00;;;;;25.47;40.57;101025.75;5060842;28;45335;-64
2023/07/08 06:52:41;;;;;;;;;5.50;4.00;;;;;25.49;40.67;101038.22;5072154;28;46192;-63
2023/07/08 06:55:09;;;;;;;;;1.50;1.50;;;;;25.48;40.14;101031.97;5063070;27;45525;-63
2023/07/08 06:57:37;;;;;;;;;1.00;1.00;;;;;25.49;40.81;101032.84;5061581;28;45461;-64
2023/07/08 07:00:03;;;;;;;;;3.00;3.00;;;;;25.46;40.23;101034.78;5061438;28;45319;-64
2023/07/08 07:02:28;;;;;;;;;4.25;3.00;;;;;25.47;40.95;101038.31;5061381;28;45217;-64
2023/07/08 07:04:55;;;;;;;;;4.25;3.25;;;;;25.51;40.84;101036.25;5074307;28;52865;-64
2023/07/08 07:07:20;;;;;;;;;2.00;2.00;;;;;25.47;40.31;101028.44;5061441;28;45325;-63
2023/07/08 07:09:46;;;;;;;;;3.00;3.00;;;;;25.52;40.58;101035.28;5059751;28;45843;-63
2023/07/08 07:12:11;;;;;;;;;3.00;3.00;;;;;25.53;40.34;101037.03;5059843;28;46686;-63
2023/07/08 07:14:36;;;;;;;;;2.75;2.75;;;;;25.50;40.38;101038.09;5060992;28;45461;-63
2023/07/08 07:17:02;;;;;;;;;3.00;2.00;;;;;25.55;40.77;101044.00;5067973;28;45586;-63
2023/07/08 07:19:27;;;;;;;;;2.75;2.50;;;;;25.56;40.53;101040.34;5077675;28;45352;-64
2023/07/08 07:21:53;;;;;;;;;2.75;2.75;;;;;25.56;40.75;101032.28;5076486;27;47394;-63
2023/07/08 07:24:18;;;;;;;;;3.25;2.00;;;;;25.56;41.11;101034.09;5059743;28;45329;-64
2023/07/08 07:26:44;;;;;;;;;3.75;3.75;;;;;25.57;40.55;101033.13;5059986;28;45475;-64
2023/07/08 07:29:09;;;;;;;;;2.00;2.00;;;;;25.63;41.08;101038.94;5059696;28;45415;-63
2023/07/08 07:31:35;;;;;;;;;5.00;3.50;;;;;25.64;41.09;101035.25;5059734;28;47192;-63
2023/07/08 07:34:01;;;;;;;;;3.25;3.00;;;;;25.67;40.85;101033.31;5061002;28;45385;-64
2023/07/08 07:36:27;;;;;;;;;4.75;3.25;;;;;25.69;41.11;101028.69;5061000;28;45185;-63
2023/07/08 07:38:53;;;;;;;;;3.25;3.00;;;;;25.71;40.86;101038.38;5060662;28;45541;-63
2023/07/08 07:41:18;;;;;;;;;5.00;3.00;;;;;25.72;40.18;101037.41;5060824;28;45328;-63
2023/07/08 07:43:43;;;;;;;;;4.00;3.50;;;;;25.73;41.08;101041.78;5060658;28;45363;-63
2023/07/08 07:46:10;;;;;;;;;4.00;3.00;;;;;25.75;40.87;101033.63;5066799;28;45393;-64
2023/07/08 07:48:36;;;;;;;;;5.00;3.25;;;;;25.79;40.97;101045.88;5073633;28;45597;-63
2023/07/08 07:51:01;;;;;;;;;2.50;2.50;;;;;25.82;40.96;101039.41;5060555;28;46234;-63
2023/07/08 07:53:26;;;;;;;;;7.00;3.00;;;;;25.84;40.57;101042.84;5076127;28;45256;-63
2023/07/08 07:55:59;;;;;;;;;4.00;3.00;;;;;25.84;40.80;101043.69;5080852;28;45737;-65
2023/07/08 07:58:25;;;;;;;;;5.50;4.25;;;;;25.90;41.28;101048.63;5080644;28;45272;-63
2023/07/08 08:00:50;;;;;;;;;26.50;23.50;;;;;25.91;41.03;101054.84;5080601;28;46251;-63
2023/07/08 08:03:16;;;;;;;;;3.50;3.25;;;;;25.95;40.77;101059.91;5079667;28;45314;-63
2023/07/08 08:05:42;;;;;;;;;5.25;3.50;;;;;25.96;40.75;101055.38;5079541;28;45481;-63
2023/07/08 08:08:07;;;;;;;;;4.00;3.00;;;;;25.98;41.24;101057.97;5080604;28;45517;-63
2023/07/08 08:10:33;;;;;;;;;0.00;0.00;;;;;26.02;41.02;101054.91;5080712;28;46383;-63
2023/07/08 08:12:58;;;;;;;;;5.75;3.75;;;;;26.07;40.88;101054.63;5080524;28;45359;-64
2023/07/08 08:15:24;;;;;;;;;7.50;6.00;;;;;26.11;40.72;101054.28;5080690;28;45338;-63
2023/07/08 08:17:51;;;;;;;;;5.00;4.50;;;;;26.15;41.05;101056.72;5080573;28;45331;-63
2023/07/08 08:20:18;;;;;;;;;5.00;4.00;;;;;26.20;40.60;101066.19;5079202;28;46051;-63
2023/07/08 08:22:43;;;;;;;;;4.75;4.75;;;;;26.25;41.08;101060.44;5060420;28;45538;-63
2023/07/08 08:25:10;;;;;;;;;4.50;4.50;;;;;26.27;41.31;101066.56;5058829;28;45300;-63
2023/07/08 08:27:35;;;;;;;;;6.50;5.00;;;;;26.34;41.05;101069.66;5059802;28;45583;-63
2023/07/08 08:30:01;;;;;;;;;7.50;5.50;;;;;26.39;41.33;101070.16;5060201;28;46564;-63
2023/07/08 08:32:26;;;;;;;;;5.00;5.00;;;;;26.45;41.38;101077.78;5058824;28;45315;-63
2023/07/08 08:34:51;;;;;;;;;4.50;4.50;;;;;26.49;40.74;101076.59;5060048;28;45268;-63
2023/07/08 08:37:17;;;;;;;;;6.25;6.00;;;;;26.54;40.86;101089.69;5058609;28;45913;-63
2023/07/08 08:39:42;;;;;;;;;5.00;5.00;;;;;26.60;41.26;101087.41;5059893;28;46192;-63
2023/07/08 08:42:25;;;;;;;;;7.25;5.00;;;;;26.66;40.79;101096.00;5059719;28;45264;-63
2023/07/08 08:44:51;;;;;;;;;5.75;3.75;;;;;26.71;40.81;101085.72;5058701;28;45334;-63
2023/07/08 08:47:29;;;;;;;;;3.50;3.50;;;;;26.77;41.33;101094.19;5059619;28;45390;-63
2023/07/08 08:50:03;;;;;;;;;6.00;6.00;;;;;26.82;40.97;101091.16;5059992;28;45740;-64
2023/07/08 08:52:29;;;;;;;;;1.00;1.00;;;;;26.87;41.17;101086.25;5068545;28;45359;-64
2023/07/08 08:54:54;;;;;;;;;5.25;5.25;;;;;26.90;41.13;101077.91;5065017;28;45402;-64
2023/07/08 08:57:57;;;;;;;;;5.50;3.50;;;;;27.01;40.67;101082.50;5079934;28;45310;-64
2023/07/08 09:00:45;;;;;;;;;5.50;4.25;;;;;27.06;41.00;101084.81;5072853;28;46485;-64
2023/07/08 09:03:16;;;;;;;;;5.00;5.00;;;;;27.14;41.02;101081.53;5080038;28;45199;-64
2023/07/08 09:05:45;;;;;;;;;5.50;4.25;;;;;27.16;40.59;101085.81;5078586;28;45288;-63
2023/07/08 09:08:10;;;;;;;;;9.00;8.25;;;;;27.23;41.09;101078.09;5078422;28;45772;-64
2023/07/08 09:11:01;;;;;;;;;6.00;5.00;;;;;27.29;40.56;101080.28;5078391;28;48152;-64
2023/07/08 09:13:36;;;;;;;;;5.75;5.00;;;;;27.33;40.70;101080.91;5079612;28;45915;-64
2023/07/08 09:16:36;;;;;;;;;6.75;6.00;;;;;27.40;41.27;101082.19;5083373;28;45423;-64
2023/07/08 09:19:11;;;;;;;;;9.50;6.75;;;;;27.43;40.63;101073.81;5081466;28;45240;-64
2023/07/08 09:21:46;;;;;;;;;5.00;5.00;;;;;27.51;40.47;101079.47;5075063;28;45642;-63
2023/07/08 09:24:28;;;;;;;;;7.75;5.50;;;;;27.57;40.43;101091.59;5062875;28;45398;-64
2023/07/08 09:26:56;;;;;;;;;4.75;4.75;;;;;27.63;40.72;101077.59;5062721;28;45249;-64
2023/07/08 09:29:22;;;;;;;;;4.25;4.25;;;;;27.66;40.64;101079.19;5062512;28;45243;-64
2023/07/08 09:31:48;;;;;;;;;5.00;4.25;;;;;27.69;40.88;101073.56;5061427;28;47983;-64
2023/07/08 09:34:20;;;;;;;;;6.50;5.50;;;;;27.79;40.51;101082.63;5062726;28;45276;-64
2023/07/08 09:36:47;;;;;;;;;7.00;7.00;;;;;27.84;40.62;101080.38;5061757;28;45217;-63
2023/07/08 09:39:18;;;;;;;;;5.25;4.25;;;;;27.88;39.92;101071.03;5062695;28;45402;-63
2023/07/08 09:41:46;;;;;;;;;2.50;1.75;;;;;27.95;40.04;101075.94;5062487;28;46700;-63
2023/07/08 09:44:14;;;;;;;;;6.00;5.00;;;;;28.01;40.00;101080.84;5082725;28;45354;-63
2023/07/08 09:46:39;;;;;;;;;5.75;5.00;;;;;28.06;39.98;101070.53;5082991;28;45161;-63
2023/07/08 09:49:15;;;;;;;;;4.00;4.00;;;;;28.12;39.77;101074.59;5082910;28;45563;-63
2023/07/08 09:51:40;;;;;;;;;6.50;5.50;;;;;28.16;40.02;101076.91;5071734;28;45411;-63
2023/07/08 09:54:07;;;;;;;;;4.25;4.25;;;;;28.22;40.07;101079.06;5082805;28;45315;-63
2023/07/08 09:56:33;;;;;;;;;4.00;4.00;;;;;28.27;39.84;101070.59;5081606;28;45400;-63
2023/07/08 09:58:58;;;;;;;;;5.50;4.50;;;;;28.33;39.52;101069.22;5082616;28;45358;-63
2023/07/08 10:01:27;;;;;;;;;4.25;4.25;;;;;28.42;39.61;101073.84;5082747;28;45410;-63
2023/07/08 10:03:59;;;;;;;;;3.75;2.50;;;;;28.48;39.59;101070.63;5081374;28;45284;-63
2023/07/08 10:06:32;;;;;;;;;5.50;4.50;;;;;28.53;39.77;101057.56;5081467;28;45268;-63
2023/07/08 10:09:03;;;;;;;;;6.00;4.75;;;;;28.60;39.55;101060.59;5082390;28;45338;-64
2023/07/08 10:11:53;;;;;;;;;4.75;4.00;;;;;28.70;39.54;101063.38;5082271;28;45392;-64
2023/07/08 10:14:43;;;;;;;;;1.50;1.50;;;;;28.73;39.41;101055.03;5082174;28;45358;-64
2023/07/08 10:17:15;;;;;;;;;4.00;4.00;;;;;28.85;39.25;101056.69;5081133;28;45273;-64
2023/07/08 10:19:40;;;;;;;;;4.00;4.00;;;;;28.89;39.05;101049.13;5082315;28;45287;-64
2023/07/08 10:22:18;;;;;;;;;5.00;3.00;;;;;28.99;39.18;101051.88;5077735;28;47821;-64
2023/07/08 10:25:09;;;;;;;;;4.25;4.25;;;;;29.08;38.83;101053.81;5060946;28;45446;-64
2023/07/08 10:28:01;;;;;;;;;6.00;5.25;;;;;29.15;39.08;101044.13;5061743;28;45597;-63
2023/07/08 10:30:32;;;;;;;;;5.25;5.00;;;;;29.29;39.38;101053.75;5060581;28;45439;-63
2023/07/08 10:33:38;;;;;;;;;6.50;4.50;;;;;29.43;39.21;101057.94;5060406;28;47301;-64
2023/07/08 10:36:32;;;;;;;;;6.75;5.00;;;;;29.54;38.80;101053.44;5067323;28;45231;-64
2023/07/08 10:39:18;;;;;;;;;5.75;5.75;;;;;29.70;39.24;101066.41;5082111;28;45406;-64
2023/07/08 10:41:58;;;;;;;;;4.50;4.50;;;;;29.84;39.14;101057.91;5081983;28;45258;-63
2023/07/08 10:44:46;;;;;;;;;5.50;5.50;;;;;30.03;39.39;101050.84;5081780;28;46451;-63
2023/07/08 10:47:45;;;;;;;;;16.25;16.25;;;;;30.27;38.58;101066.66;5079474;27;45202;-63
2023/07/08 10:50:29;;;;;;;;;5.00;5.00;;;;;30.53;38.85;101064.25;5064264;28;45533;-63
2023/07/08 10:53:02;;;;;;;;;6.00;6.00;;;;;30.77;39.25;101068.34;5074035;28;45295;-63
2023/07/08 10:55:46;;;;;;;;;8.00;8.00;;;;;30.98;38.37;101057.28;5081659;28;45244;-63
2023/07/08 10:58:48;;;;;;;;;8.75;6.25;;;;;31.35;38.37;101056.44;5081451;28;45295;-63
2023/07/08 11:01:16;;;;;;;;;8.25;6.00;;;;;31.66;38.18;101061.63;5080435;28;45358;-63
2023/07/08 11:04:14;;;;;;;;;5.25;4.00;;;;;32.00;38.27;101062.78;5081790;28;45318;-63
2023/07/08 11:06:57;;;;;;;;;3.00;3.00;;;;;32.32;37.93;101064.16;5081516;28;45526;-63
2023/07/08 11:09:58;;;;;;;;;7.00;6.00;;;;;32.64;38.29;101074.44;5080185;28;45193;-63
2023/07/08 11:12:36;;;;;;;;;5.25;4.25;;;;;32.96;37.75;101064.81;5074085;28;45278;-63
2023/07/08 11:15:13;;;;;;;;;6.00;6.00;;;;;33.27;37.93;101056.13;5081583;28;45371;-63
2023/07/08 11:17:48;;;;;;;;;7.25;6.75;;;;;33.58;37.37;101060.19;5080066;28;47051;-63
2023/07/08 11:20:20;;;;;;;;;6.00;6.00;;;;;33.88;37.02;101058.75;5081546;28;45371;-63
2023/07/08 11:22:54;;;;;;;;;8.25;5.50;;;;;34.23;37.28;101053.13;5063386;28;45319;-63
2023/07/08 11:25:23;;;;;;;;;7.00;6.00;;;;;34.50;36.85;101049.25;5060820;28;45389;-63
2023/07/08 11:27:53;;;;;;;;;5.50;5.50;;;;;34.85;37.14;101049.88;5060555;28;45275;-63
2023/07/08 11:30:24;;;;;;;;;8.25;6.75;;;;;35.14;36.83;101046.56;5059608;28;45406;-63
2023/07/08 11:32:58;;;;;;;;;4.00;3.00;;;;;35.50;36.54;101047.97;5064075;28;45404;-63